sensor_id;sensor_type;location;lat;lon;timestamp;P1;durP1;ratioP1;P2;durP2;ratioP2
17842;SDS011;69286;48.222;16.332;2024-03-25T00:01:58;2.50;;;2.30;;
17842;SDS011;69286;48.222;16.332;2024-03-25T00:04:24;3.50;;;2.27;;
17842;SDS011;69286;48.222;16.332;2024-03-25T00:06:51;2.00;;;1.90;;
17842;SDS011;69286;48.222;16.332;2024-03-25T00:09:18;2.10;;;2.00;;
17842;SDS011;69286;48.222;16.332;2024-03-25T00:11:45;2.40;;;2.20;;
17842;SDS011;69286;48.222;16.332;2024-03-25T00:14:11;2.30;;;2.10;;
17842;SDS011;69286;48.222;16.332;2024-03-25T00:16:38;3.40;;;2.07;;
17842;SDS011;69286;48.222;16.332;2024-03-25T00:19:06;3.17;;;2.10;;
17842;SDS011;69286;48.222;16.332;2024-03-25T00:21:33;2.13;;;1.93;;
17842;SDS011;69286;48.222;16.332;2024-03-25T00:23:59;2.47;;;2.30;;
17842;SDS011;69286;48.222;16.332;2024-03-25T00:26:26;2.17;;;2.07;;
17842;SDS011;69286;48.222;16.332;2024-03-25T00:28:52;2.30;;;2.13;;
17842;SDS011;69286;48.222;16.332;2024-03-25T00:31:19;2.33;;;2.23;;
17842;SDS011;69286;48.222;16.332;2024-03-25T00:33:45;1.97;;;1.87;;
17842;SDS011;69286;48.222;16.332;2024-03-25T00:36:13;2.33;;;2.23;;
17842;SDS011;69286;48.222;16.332;2024-03-25T00:38:39;2.17;;;2.07;;
17842;SDS011;69286;48.222;16.332;2024-03-25T00:41:06;3.77;;;2.10;;
17842;SDS011;69286;48.222;16.332;2024-03-25T00:43:33;2.40;;;2.20;;
17842;SDS011;69286;48.222;16.332;2024-03-25T00:46:00;2.10;;;2.00;;
17842;SDS011;69286;48.222;16.332;2024-03-25T00:48:26;2.30;;;1.93;;
17842;SDS011;69286;48.222;16.332;2024-03-25T00:50:53;2.50;;;2.30;;
17842;SDS011;69286;48.222;16.332;2024-03-25T00:53:20;2.00;;;1.90;;
17842;SDS011;69286;48.222;16.332;2024-03-25T00:55:47;2.60;;;2.40;;
17842;SDS011;69286;48.222;16.332;2024-03-25T00:58:13;3.13;;;2.30;;
17842;SDS011;69286;48.222;16.332;2024-03-25T01:00:41;4.63;;;2.60;;
17842;SDS011;69286;48.222;16.332;2024-03-25T01:03:07;2.57;;;2.20;;
17842;SDS011;69286;48.222;16.332;2024-03-25T01:05:34;3.27;;;2.50;;
17842;SDS011;69286;48.222;16.332;2024-03-25T01:08:00;2.70;;;2.50;;
17842;SDS011;69286;48.222;16.332;2024-03-25T01:10:30;2.53;;;2.33;;
17842;SDS011;69286;48.222;16.332;2024-03-25T01:12:56;2.27;;;2.10;;
17842;SDS011;69286;48.222;16.332;2024-03-25T01:15:23;4.57;;;2.60;;
17842;SDS011;69286;48.222;16.332;2024-03-25T01:17:49;2.83;;;2.57;;
17842;SDS011;69286;48.222;16.332;2024-03-25T01:20:16;2.63;;;2.43;;
17842;SDS011;69286;48.222;16.332;2024-03-25T01:22:42;3.10;;;2.80;;
17842;SDS011;69286;48.222;16.332;2024-03-25T01:25:09;2.53;;;2.40;;
17842;SDS011;69286;48.222;16.332;2024-03-25T01:27:37;2.60;;;2.50;;
17842;SDS011;69286;48.222;16.332;2024-03-25T01:30:04;2.47;;;2.13;;
17842;SDS011;69286;48.222;16.332;2024-03-25T01:32:32;2.83;;;2.60;;
17842;SDS011;69286;48.222;16.332;2024-03-25T01:35:00;3.20;;;2.90;;
17842;SDS011;69286;48.222;16.332;2024-03-25T01:37:26;3.03;;;2.73;;
17842;SDS011;69286;48.222;16.332;2024-03-25T01:39:54;4.07;;;2.70;;
17842;SDS011;69286;48.222;16.332;2024-03-25T01:42:20;3.20;;;2.90;;
17842;SDS011;69286;48.222;16.332;2024-03-25T01:44:48;2.73;;;2.50;;
17842;SDS011;69286;48.222;16.332;2024-03-25T01:47:14;3.10;;;2.33;;
17842;SDS011;69286;48.222;16.332;2024-03-25T01:49:41;5.83;;;2.87;;
17842;SDS011;69286;48.222;16.332;2024-03-25T01:52:08;3.03;;;2.43;;
17842;SDS011;69286;48.222;16.332;2024-03-25T01:54:35;2.57;;;2.37;;
17842;SDS011;69286;48.222;16.332;2024-03-25T01:57:01;2.97;;;2.30;;
17842;SDS011;69286;48.222;16.332;2024-03-25T01:59:29;2.80;;;2.60;;
17842;SDS011;69286;48.222;16.332;2024-03-25T02:01:57;2.20;;;2.10;;
17842;SDS011;69286;48.222;16.332;2024-03-25T02:04:25;2.77;;;2.33;;
17842;SDS011;69286;48.222;16.332;2024-03-25T02:06:51;3.40;;;2.20;;
17842;SDS011;69286;48.222;16.332;2024-03-25T02:09:20;2.90;;;2.03;;
17842;SDS011;69286;48.222;16.332;2024-03-25T02:11:48;2.20;;;2.10;;
17842;SDS011;69286;48.222;16.332;2024-03-25T02:14:16;2.07;;;1.90;;
17842;SDS011;69286;48.222;16.332;2024-03-25T02:16:42;2.40;;;2.20;;
17842;SDS011;69286;48.222;16.332;2024-03-25T02:19:11;2.73;;;2.53;;
17842;SDS011;69286;48.222;16.332;2024-03-25T02:21:40;2.70;;;2.50;;
17842;SDS011;69286;48.222;16.332;2024-03-25T02:24:08;3.77;;;2.20;;
17842;SDS011;69286;48.222;16.332;2024-03-25T02:26:36;3.80;;;2.40;;
17842;SDS011;69286;48.222;16.332;2024-03-25T02:29:04;3.23;;;2.93;;
17842;SDS011;69286;48.222;16.332;2024-03-25T02:31:29;2.80;;;2.60;;
17842;SDS011;69286;48.222;16.332;2024-03-25T02:33:57;2.80;;;2.60;;
17842;SDS011;69286;48.222;16.332;2024-03-25T02:36:23;3.20;;;2.53;;
17842;SDS011;69286;48.222;16.332;2024-03-25T02:38:51;3.00;;;2.70;;
17842;SDS011;69286;48.222;16.332;2024-03-25T02:41:17;2.60;;;2.40;;
17842;SDS011;69286;48.222;16.332;2024-03-25T02:43:45;2.70;;;2.40;;
17842;SDS011;69286;48.222;16.332;2024-03-25T02:46:11;3.07;;;2.87;;
17842;SDS011;69286;48.222;16.332;2024-03-25T02:48:39;4.00;;;2.80;;
17842;SDS011;69286;48.222;16.332;2024-03-25T02:51:05;3.13;;;2.73;;
17842;SDS011;69286;48.222;16.332;2024-03-25T02:53:32;5.23;;;2.90;;
17842;SDS011;69286;48.222;16.332;2024-03-25T02:55:58;3.50;;;2.60;;
17842;SDS011;69286;48.222;16.332;2024-03-25T02:58:25;3.10;;;2.87;;
17842;SDS011;69286;48.222;16.332;2024-03-25T03:00:52;3.40;;;3.10;;
17842;SDS011;69286;48.222;16.332;2024-03-25T03:03:19;5.97;;;2.67;;
17842;SDS011;69286;48.222;16.332;2024-03-25T03:05:45;2.60;;;2.40;;
17842;SDS011;69286;48.222;16.332;2024-03-25T03:08:12;2.93;;;2.70;;
17842;SDS011;69286;48.222;16.332;2024-03-25T03:10:38;3.07;;;2.80;;
17842;SDS011;69286;48.222;16.332;2024-03-25T03:13:05;3.33;;;3.03;;
17842;SDS011;69286;48.222;16.332;2024-03-25T03:15:31;4.70;;;3.20;;
17842;SDS011;69286;48.222;16.332;2024-03-25T03:17:59;3.63;;;3.10;;
17842;SDS011;69286;48.222;16.332;2024-03-25T03:20:25;4.40;;;3.07;;
17842;SDS011;69286;48.222;16.332;2024-03-25T03:22:52;3.50;;;3.17;;
17842;SDS011;69286;48.222;16.332;2024-03-25T03:25:18;4.83;;;3.50;;
17842;SDS011;69286;48.222;16.332;2024-03-25T03:27:45;4.83;;;3.90;;
17842;SDS011;69286;48.222;16.332;2024-03-25T03:30:11;3.50;;;3.20;;
17842;SDS011;69286;48.222;16.332;2024-03-25T03:32:38;4.57;;;3.33;;
17842;SDS011;69286;48.222;16.332;2024-03-25T03:35:06;5.77;;;3.13;;
17842;SDS011;69286;48.222;16.332;2024-03-25T03:37:33;3.43;;;3.00;;
17842;SDS011;69286;48.222;16.332;2024-03-25T03:39:59;4.63;;;3.27;;
17842;SDS011;69286;48.222;16.332;2024-03-25T03:42:26;4.37;;;2.93;;
17842;SDS011;69286;48.222;16.332;2024-03-25T03:44:52;3.70;;;3.13;;
17842;SDS011;69286;48.222;16.332;2024-03-25T03:47:19;5.93;;;3.07;;
17842;SDS011;69286;48.222;16.332;2024-03-25T03:49:45;3.20;;;2.90;;
17842;SDS011;69286;48.222;16.332;2024-03-25T03:52:13;3.07;;;2.77;;
17842;SDS011;69286;48.222;16.332;2024-03-25T03:54:39;3.63;;;3.20;;
17842;SDS011;69286;48.222;16.332;2024-03-25T03:57:06;3.43;;;3.03;;
17842;SDS011;69286;48.222;16.332;2024-03-25T03:59:32;4.33;;;3.20;;
17842;SDS011;69286;48.222;16.332;2024-03-25T04:02:00;3.30;;;3.00;;
17842;SDS011;69286;48.222;16.332;2024-03-25T04:04:26;3.53;;;3.20;;
17842;SDS011;69286;48.222;16.332;2024-03-25T04:06:53;3.40;;;3.10;;
17842;SDS011;69286;48.222;16.332;2024-03-25T04:09:20;2.97;;;2.77;;
17842;SDS011;69286;48.222;16.332;2024-03-25T04:11:48;4.20;;;3.00;;
17842;SDS011;69286;48.222;16.332;2024-03-25T04:14:14;3.40;;;3.10;;
17842;SDS011;69286;48.222;16.332;2024-03-25T04:16:41;4.37;;;3.13;;
17842;SDS011;69286;48.222;16.332;2024-03-25T04:19:07;3.50;;;3.20;;
17842;SDS011;69286;48.222;16.332;2024-03-25T04:21:34;4.73;;;3.23;;
17842;SDS011;69286;48.222;16.332;2024-03-25T04:24:00;3.53;;;3.10;;
17842;SDS011;69286;48.222;16.332;2024-03-25T04:26:29;3.90;;;3.50;;
17842;SDS011;69286;48.222;16.332;2024-03-25T04:28:55;3.40;;;3.10;;
17842;SDS011;69286;48.222;16.332;2024-03-25T04:31:22;5.70;;;3.70;;
17842;SDS011;69286;48.222;16.332;2024-03-25T04:33:48;3.63;;;3.33;;
17842;SDS011;69286;48.222;16.332;2024-03-25T04:36:15;6.10;;;3.67;;
17842;SDS011;69286;48.222;16.332;2024-03-25T04:38:41;3.83;;;3.10;;
17842;SDS011;69286;48.222;16.332;2024-03-25T04:41:07;3.40;;;3.10;;
17842;SDS011;69286;48.222;16.332;2024-03-25T04:43:35;6.73;;;3.33;;
17842;SDS011;69286;48.222;16.332;2024-03-25T04:46:01;5.07;;;3.63;;
17842;SDS011;69286;48.222;16.332;2024-03-25T04:48:27;4.37;;;3.30;;
17842;SDS011;69286;48.222;16.332;2024-03-25T04:50:53;3.57;;;3.27;;
17842;SDS011;69286;48.222;16.332;2024-03-25T04:53:19;4.37;;;3.37;;
17842;SDS011;69286;48.222;16.332;2024-03-25T04:55:45;4.47;;;3.27;;
17842;SDS011;69286;48.222;16.332;2024-03-25T04:58:11;5.77;;;3.37;;
17842;SDS011;69286;48.222;16.332;2024-03-25T05:00:38;3.27;;;2.97;;
17842;SDS011;69286;48.222;16.332;2024-03-25T05:03:05;3.53;;;3.23;;
17842;SDS011;69286;48.222;16.332;2024-03-25T05:05:31;3.50;;;3.20;;
17842;SDS011;69286;48.222;16.332;2024-03-25T05:07:57;4.00;;;3.60;;
17842;SDS011;69286;48.222;16.332;2024-03-25T05:10:23;3.57;;;3.27;;
17842;SDS011;69286;48.222;16.332;2024-03-25T05:12:49;3.93;;;3.27;;
17842;SDS011;69286;48.222;16.332;2024-03-25T05:15:15;3.80;;;3.10;;
17842;SDS011;69286;48.222;16.332;2024-03-25T05:17:43;3.50;;;3.13;;
17842;SDS011;69286;48.222;16.332;2024-03-25T05:20:09;4.97;;;3.00;;
17842;SDS011;69286;48.222;16.332;2024-03-25T05:22:36;6.03;;;3.97;;
17842;SDS011;69286;48.222;16.332;2024-03-25T05:25:02;3.90;;;3.10;;
17842;SDS011;69286;48.222;16.332;2024-03-25T05:27:28;3.93;;;3.43;;
17842;SDS011;69286;48.222;16.332;2024-03-25T05:29:54;5.20;;;3.33;;
17842;SDS011;69286;48.222;16.332;2024-03-25T05:32:20;3.70;;;3.30;;
17842;SDS011;69286;48.222;16.332;2024-03-25T05:34:48;4.47;;;3.57;;
17842;SDS011;69286;48.222;16.332;2024-03-25T05:37:14;3.73;;;3.33;;
17842;SDS011;69286;48.222;16.332;2024-03-25T05:39:40;5.10;;;3.13;;
17842;SDS011;69286;48.222;16.332;2024-03-25T05:42:06;3.50;;;2.73;;
17842;SDS011;69286;48.222;16.332;2024-03-25T05:44:32;4.80;;;3.10;;
17842;SDS011;69286;48.222;16.332;2024-03-25T05:46:58;3.10;;;2.83;;
17842;SDS011;69286;48.222;16.332;2024-03-25T05:49:24;4.53;;;3.40;;
17842;SDS011;69286;48.222;16.332;2024-03-25T05:51:52;4.27;;;3.00;;
17842;SDS011;69286;48.222;16.332;2024-03-25T05:54:18;6.43;;;3.33;;
17842;SDS011;69286;48.222;16.332;2024-03-25T05:56:44;5.30;;;3.07;;
17842;SDS011;69286;48.222;16.332;2024-03-25T05:59:10;4.43;;;3.13;;
17842;SDS011;69286;48.222;16.332;2024-03-25T06:01:37;3.80;;;3.30;;
17842;SDS011;69286;48.222;16.332;2024-03-25T06:04:03;3.80;;;3.07;;
17842;SDS011;69286;48.222;16.332;2024-03-25T06:06:29;3.40;;;3.10;;
17842;SDS011;69286;48.222;16.332;2024-03-25T06:08:56;3.30;;;3.00;;
17842;SDS011;69286;48.222;16.332;2024-03-25T06:11:23;4.50;;;3.50;;
17842;SDS011;69286;48.222;16.332;2024-03-25T06:13:49;3.70;;;3.30;;
17842;SDS011;69286;48.222;16.332;2024-03-25T06:16:15;5.53;;;3.27;;
17842;SDS011;69286;48.222;16.332;2024-03-25T06:18:41;4.30;;;3.40;;
17842;SDS011;69286;48.222;16.332;2024-03-25T06:21:07;3.23;;;2.73;;
17842;SDS011;69286;48.222;16.332;2024-03-25T06:23:33;3.57;;;3.10;;
17842;SDS011;69286;48.222;16.332;2024-03-25T06:26:00;5.20;;;3.40;;
17842;SDS011;69286;48.222;16.332;2024-03-25T06:28:26;3.50;;;3.20;;
17842;SDS011;69286;48.222;16.332;2024-03-25T06:30:52;4.07;;;3.23;;
17842;SDS011;69286;48.222;16.332;2024-03-25T06:33:37;6.43;;;3.70;;
17842;SDS011;69286;48.222;16.332;2024-03-25T06:36:21;3.97;;;3.10;;
17842;SDS011;69286;48.222;16.332;2024-03-25T06:38:47;5.33;;;3.50;;
17842;SDS011;69286;48.222;16.332;2024-03-25T06:41:15;9.07;;;3.73;;
17842;SDS011;69286;48.222;16.332;2024-03-25T06:43:41;4.90;;;3.30;;
17842;SDS011;69286;48.222;16.332;2024-03-25T06:46:07;5.47;;;3.60;;
17842;SDS011;69286;48.222;16.332;2024-03-25T06:48:33;4.50;;;3.70;;
17842;SDS011;69286;48.222;16.332;2024-03-25T06:50:59;3.57;;;3.27;;
17842;SDS011;69286;48.222;16.332;2024-03-25T06:53:26;6.00;;;4.03;;
17842;SDS011;69286;48.222;16.332;2024-03-25T06:55:52;8.30;;;3.63;;
17842;SDS011;69286;48.222;16.332;2024-03-25T06:58:22;4.20;;;3.43;;
17842;SDS011;69286;48.222;16.332;2024-03-25T07:00:50;5.90;;;3.43;;
17842;SDS011;69286;48.222;16.332;2024-03-25T07:03:16;3.13;;;2.90;;
17842;SDS011;69286;48.222;16.332;2024-03-25T07:05:44;3.43;;;3.00;;
17842;SDS011;69286;48.222;16.332;2024-03-25T07:08:10;5.40;;;3.47;;
17842;SDS011;69286;48.222;16.332;2024-03-25T07:10:36;3.97;;;3.00;;
17842;SDS011;69286;48.222;16.332;2024-03-25T07:13:03;5.97;;;3.30;;
17842;SDS011;69286;48.222;16.332;2024-03-25T07:15:31;4.67;;;2.80;;
17842;SDS011;69286;48.222;16.332;2024-03-25T07:17:57;5.00;;;3.33;;
17842;SDS011;69286;48.222;16.332;2024-03-25T07:20:23;3.27;;;2.93;;
17842;SDS011;69286;48.222;16.332;2024-03-25T07:22:49;4.30;;;2.90;;
17842;SDS011;69286;48.222;16.332;2024-03-25T07:25:15;4.00;;;2.70;;
17842;SDS011;69286;48.222;16.332;2024-03-25T07:27:41;3.47;;;3.07;;
17842;SDS011;69286;48.222;16.332;2024-03-25T07:30:07;4.07;;;3.30;;
17842;SDS011;69286;48.222;16.332;2024-03-25T07:32:37;7.13;;;2.80;;
17842;SDS011;69286;48.222;16.332;2024-03-25T07:35:03;3.17;;;2.87;;
17842;SDS011;69286;48.222;16.332;2024-03-25T07:37:30;5.33;;;2.87;;
17842;SDS011;69286;48.222;16.332;2024-03-25T07:39:56;3.97;;;2.60;;
17842;SDS011;69286;48.222;16.332;2024-03-25T07:42:22;3.50;;;2.53;;
17842;SDS011;69286;48.222;16.332;2024-03-25T07:44:48;5.77;;;2.93;;
17842;SDS011;69286;48.222;16.332;2024-03-25T07:47:14;3.83;;;2.80;;
17842;SDS011;69286;48.222;16.332;2024-03-25T07:49:41;4.90;;;2.67;;
17842;SDS011;69286;48.222;16.332;2024-03-25T07:52:07;3.73;;;2.50;;
17842;SDS011;69286;48.222;16.332;2024-03-25T07:54:33;6.03;;;3.17;;
17842;SDS011;69286;48.222;16.332;2024-03-25T07:56:59;2.93;;;2.73;;
17842;SDS011;69286;48.222;16.332;2024-03-25T07:59:25;4.23;;;3.20;;
17842;SDS011;69286;48.222;16.332;2024-03-25T08:01:51;3.40;;;2.30;;
17842;SDS011;69286;48.222;16.332;2024-03-25T08:04:17;3.67;;;2.30;;
17842;SDS011;69286;48.222;16.332;2024-03-25T08:06:45;5.60;;;2.50;;
17842;SDS011;69286;48.222;16.332;2024-03-25T08:09:11;3.17;;;2.40;;
17842;SDS011;69286;48.222;16.332;2024-03-25T08:11:37;4.10;;;2.60;;
17842;SDS011;69286;48.222;16.332;2024-03-25T08:14:03;3.07;;;2.27;;
17842;SDS011;69286;48.222;16.332;2024-03-25T08:16:29;4.80;;;2.40;;
17842;SDS011;69286;48.222;16.332;2024-03-25T08:18:55;7.87;;;2.50;;
17842;SDS011;69286;48.222;16.332;2024-03-25T08:21:21;2.57;;;2.10;;
17842;SDS011;69286;48.222;16.332;2024-03-25T08:23:50;3.40;;;2.10;;
17842;SDS011;69286;48.222;16.332;2024-03-25T08:26:16;3.40;;;2.20;;
17842;SDS011;69286;48.222;16.332;2024-03-25T08:28:42;3.83;;;2.60;;
17842;SDS011;69286;48.222;16.332;2024-03-25T08:31:08;3.40;;;2.33;;
17842;SDS011;69286;48.222;16.332;2024-03-25T08:33:34;4.30;;;1.80;;
17842;SDS011;69286;48.222;16.332;2024-03-25T08:36:00;2.97;;;2.00;;
17842;SDS011;69286;48.222;16.332;2024-03-25T08:38:26;5.07;;;1.70;;
17842;SDS011;69286;48.222;16.332;2024-03-25T08:40:54;2.60;;;1.83;;
17842;SDS011;69286;48.222;16.332;2024-03-25T08:43:20;2.23;;;1.70;;
17842;SDS011;69286;48.222;16.332;2024-03-25T08:45:46;3.33;;;1.90;;
17842;SDS011;69286;48.222;16.332;2024-03-25T08:48:12;2.97;;;2.00;;
17842;SDS011;69286;48.222;16.332;2024-03-25T08:50:38;1.73;;;1.63;;
17842;SDS011;69286;48.222;16.332;2024-03-25T08:53:04;1.83;;;1.50;;
17842;SDS011;69286;48.222;16.332;2024-03-25T08:55:30;1.80;;;1.70;;
17842;SDS011;69286;48.222;16.332;2024-03-25T08:57:57;2.93;;;1.77;;
17842;SDS011;69286;48.222;16.332;2024-03-25T09:00:24;3.70;;;1.70;;
17842;SDS011;69286;48.222;16.332;2024-03-25T09:02:50;3.97;;;2.10;;
17842;SDS011;69286;48.222;16.332;2024-03-25T09:05:16;2.07;;;1.70;;
17842;SDS011;69286;48.222;16.332;2024-03-25T09:07:43;2.63;;;1.87;;
17842;SDS011;69286;48.222;16.332;2024-03-25T09:10:09;4.50;;;2.10;;
17842;SDS011;69286;48.222;16.332;2024-03-25T09:12:54;4.30;;;2.30;;
17842;SDS011;69286;48.222;16.332;2024-03-25T09:15:21;2.60;;;2.30;;
17842;SDS011;69286;48.222;16.332;2024-03-25T09:17:47;4.60;;;2.17;;
17842;SDS011;69286;48.222;16.332;2024-03-25T09:20:13;2.47;;;2.00;;
17842;SDS011;69286;48.222;16.332;2024-03-25T09:22:41;2.63;;;1.97;;
17842;SDS011;69286;48.222;16.332;2024-03-25T09:25:08;4.10;;;2.20;;
17842;SDS011;69286;48.222;16.332;2024-03-25T09:27:34;2.67;;;1.93;;
17842;SDS011;69286;48.222;16.332;2024-03-25T09:30:00;1.93;;;1.40;;
17842;SDS011;69286;48.222;16.332;2024-03-25T09:32:28;5.80;;;1.70;;
17842;SDS011;69286;48.222;16.332;2024-03-25T09:34:54;2.13;;;1.57;;
17842;SDS011;69286;48.222;16.332;2024-03-25T09:37:20;5.00;;;1.80;;
17842;SDS011;69286;48.222;16.332;2024-03-25T09:39:46;3.37;;;1.67;;
17842;SDS011;69286;48.222;16.332;2024-03-25T09:42:13;1.80;;;1.70;;
17842;SDS011;69286;48.222;16.332;2024-03-25T09:44:40;2.53;;;1.80;;
17842;SDS011;69286;48.222;16.332;2024-03-25T09:47:07;4.83;;;2.00;;
17842;SDS011;69286;48.222;16.332;2024-03-25T09:49:34;2.73;;;1.80;;
17842;SDS011;69286;48.222;16.332;2024-03-25T09:52:02;2.17;;;1.40;;
17842;SDS011;69286;48.222;16.332;2024-03-25T09:54:28;1.70;;;1.60;;
17842;SDS011;69286;48.222;16.332;2024-03-25T09:56:54;6.20;;;3.13;;
17842;SDS011;69286;48.222;16.332;2024-03-25T09:59:21;2.20;;;1.90;;
17842;SDS011;69286;48.222;16.332;2024-03-25T10:01:47;3.03;;;1.40;;
17842;SDS011;69286;48.222;16.332;2024-03-25T10:04:13;2.17;;;1.57;;
17842;SDS011;69286;48.222;16.332;2024-03-25T10:06:40;1.57;;;1.47;;
17842;SDS011;69286;48.222;16.332;2024-03-25T10:09:06;1.73;;;1.43;;
17842;SDS011;69286;48.222;16.332;2024-03-25T10:11:33;1.93;;;1.20;;
17842;SDS011;69286;48.222;16.332;2024-03-25T10:14:00;2.40;;;1.43;;
17842;SDS011;69286;48.222;16.332;2024-03-25T10:16:26;1.53;;;1.30;;
17842;SDS011;69286;48.222;16.332;2024-03-25T10:18:52;2.20;;;1.40;;
17842;SDS011;69286;48.222;16.332;2024-03-25T10:21:19;2.83;;;1.63;;
17842;SDS011;69286;48.222;16.332;2024-03-25T10:23:47;3.13;;;1.47;;
17842;SDS011;69286;48.222;16.332;2024-03-25T10:26:26;1.70;;;1.60;;
17842;SDS011;69286;48.222;16.332;2024-03-25T10:28:59;2.20;;;1.60;;
17842;SDS011;69286;48.222;16.332;2024-03-25T10:31:26;1.33;;;1.23;;
17842;SDS011;69286;48.222;16.332;2024-03-25T10:33:53;2.80;;;1.50;;
17842;SDS011;69286;48.222;16.332;2024-03-25T10:36:19;3.57;;;1.80;;
17842;SDS011;69286;48.222;16.332;2024-03-25T10:38:48;3.20;;;1.47;;
17842;SDS011;69286;48.222;16.332;2024-03-25T10:41:17;3.43;;;1.47;;
17842;SDS011;69286;48.222;16.332;2024-03-25T10:43:44;3.67;;;1.70;;
17842;SDS011;69286;48.222;16.332;2024-03-25T10:46:12;2.33;;;1.73;;
17842;SDS011;69286;48.222;16.332;2024-03-25T10:48:42;4.50;;;2.90;;
17842;SDS011;69286;48.222;16.332;2024-03-25T10:51:13;2.60;;;2.13;;
17842;SDS011;69286;48.222;16.332;2024-03-25T10:53:39;2.33;;;1.67;;
17842;SDS011;69286;48.222;16.332;2024-03-25T10:56:09;3.13;;;1.80;;
17842;SDS011;69286;48.222;16.332;2024-03-25T10:58:37;4.90;;;2.40;;
17842;SDS011;69286;48.222;16.332;2024-03-25T11:01:04;2.40;;;1.50;;
17842;SDS011;69286;48.222;16.332;2024-03-25T11:03:31;1.63;;;1.53;;
17842;SDS011;69286;48.222;16.332;2024-03-25T11:05:58;3.00;;;1.60;;
17842;SDS011;69286;48.222;16.332;2024-03-25T11:08:29;7.07;;;4.03;;
17842;SDS011;69286;48.222;16.332;2024-03-25T11:10:56;8.37;;;3.97;;
17842;SDS011;69286;48.222;16.332;2024-03-25T11:13:26;5.30;;;2.10;;
17842;SDS011;69286;48.222;16.332;2024-03-25T11:15:52;4.57;;;2.60;;
17842;SDS011;69286;48.222;16.332;2024-03-25T11:18:23;6.63;;;2.77;;
17842;SDS011;69286;48.222;16.332;2024-03-25T11:20:59;6.93;;;2.40;;
17842;SDS011;69286;48.222;16.332;2024-03-25T11:23:26;3.37;;;2.17;;
17842;SDS011;69286;48.222;16.332;2024-03-25T11:25:54;3.17;;;2.10;;
17842;SDS011;69286;48.222;16.332;2024-03-25T11:28:29;3.03;;;2.10;;
17842;SDS011;69286;48.222;16.332;2024-03-25T11:30:55;4.23;;;1.93;;
17842;SDS011;69286;48.222;16.332;2024-03-25T11:33:22;6.77;;;2.30;;
17842;SDS011;69286;48.222;16.332;2024-03-25T11:35:48;2.10;;;1.93;;
17842;SDS011;69286;48.222;16.332;2024-03-25T11:38:14;3.50;;;2.20;;
17842;SDS011;69286;48.222;16.332;2024-03-25T11:40:41;3.63;;;1.70;;
17842;SDS011;69286;48.222;16.332;2024-03-25T11:43:17;3.53;;;1.70;;
17842;SDS011;69286;48.222;16.332;2024-03-25T11:45:47;2.47;;;1.97;;
17842;SDS011;69286;48.222;16.332;2024-03-25T11:48:14;2.70;;;1.77;;
17842;SDS011;69286;48.222;16.332;2024-03-25T11:50:40;2.00;;;1.57;;
17842;SDS011;69286;48.222;16.332;2024-03-25T11:53:07;2.40;;;1.87;;
17842;SDS011;69286;48.222;16.332;2024-03-25T11:55:33;1.70;;;1.50;;
17842;SDS011;69286;48.222;16.332;2024-03-25T11:57:59;3.13;;;2.20;;
17842;SDS011;69286;48.222;16.332;2024-03-25T12:00:26;1.90;;;1.80;;
17842;SDS011;69286;48.222;16.332;2024-03-25T12:02:53;3.13;;;1.87;;
17842;SDS011;69286;48.222;16.332;2024-03-25T12:05:20;2.23;;;1.90;;
17842;SDS011;69286;48.222;16.332;2024-03-25T12:07:46;1.97;;;1.83;;
17842;SDS011;69286;48.222;16.332;2024-03-25T12:10:12;2.90;;;1.83;;
17842;SDS011;69286;48.222;16.332;2024-03-25T12:13:11;4.50;;;1.93;;
17842;SDS011;69286;48.222;16.332;2024-03-25T12:15:37;1.83;;;1.70;;
17842;SDS011;69286;48.222;16.332;2024-03-25T12:18:05;2.23;;;2.03;;
17842;SDS011;69286;48.222;16.332;2024-03-25T12:20:31;6.80;;;2.00;;
17842;SDS011;69286;48.222;16.332;2024-03-25T12:22:57;6.60;;;2.13;;
17842;SDS011;69286;48.222;16.332;2024-03-25T12:25:23;1.80;;;1.70;;
17842;SDS011;69286;48.222;16.332;2024-03-25T12:27:49;2.07;;;1.93;;
17842;SDS011;69286;48.222;16.332;2024-03-25T12:30:15;3.47;;;2.10;;
17842;SDS011;69286;48.222;16.332;2024-03-25T12:32:41;2.50;;;1.90;;
17842;SDS011;69286;48.222;16.332;2024-03-25T12:35:10;2.10;;;1.90;;
17842;SDS011;69286;48.222;16.332;2024-03-25T12:37:37;3.53;;;1.73;;
17842;SDS011;69286;48.222;16.332;2024-03-25T12:40:04;9.20;;;1.90;;
17842;SDS011;69286;48.222;16.332;2024-03-25T12:42:31;2.77;;;2.30;;
17842;SDS011;69286;48.222;16.332;2024-03-25T12:44:57;2.73;;;2.10;;
17842;SDS011;69286;48.222;16.332;2024-03-25T12:47:23;3.53;;;2.50;;
17842;SDS011;69286;48.222;16.332;2024-03-25T12:49:49;4.83;;;2.67;;
17842;SDS011;69286;48.222;16.332;2024-03-25T12:52:17;3.30;;;2.23;;
17842;SDS011;69286;48.222;16.332;2024-03-25T12:54:43;2.50;;;2.30;;
17842;SDS011;69286;48.222;16.332;2024-03-25T12:57:11;3.93;;;2.33;;
17842;SDS011;69286;48.222;16.332;2024-03-25T12:59:37;3.10;;;2.10;;
17842;SDS011;69286;48.222;16.332;2024-03-25T13:02:04;3.30;;;1.90;;
17842;SDS011;69286;48.222;16.332;2024-03-25T13:04:30;5.37;;;2.07;;
17842;SDS011;69286;48.222;16.332;2024-03-25T13:06:56;2.60;;;1.70;;
17842;SDS011;69286;48.222;16.332;2024-03-25T13:09:23;3.13;;;2.00;;
17842;SDS011;69286;48.222;16.332;2024-03-25T13:11:50;1.97;;;1.80;;
17842;SDS011;69286;48.222;16.332;2024-03-25T13:14:16;4.60;;;2.10;;
17842;SDS011;69286;48.222;16.332;2024-03-25T13:16:42;3.63;;;2.60;;
17842;SDS011;69286;48.222;16.332;2024-03-25T13:19:08;2.50;;;1.97;;
17842;SDS011;69286;48.222;16.332;2024-03-25T13:21:34;3.37;;;2.20;;
17842;SDS011;69286;48.222;16.332;2024-03-25T13:24:00;2.73;;;1.90;;
17842;SDS011;69286;48.222;16.332;2024-03-25T13:26:27;5.73;;;2.03;;
17842;SDS011;69286;48.222;16.332;2024-03-25T13:28:53;2.60;;;1.87;;
17842;SDS011;69286;48.222;16.332;2024-03-25T13:31:19;4.77;;;2.33;;
17842;SDS011;69286;48.222;16.332;2024-03-25T13:33:45;2.30;;;2.10;;
17842;SDS011;69286;48.222;16.332;2024-03-25T13:36:11;3.33;;;2.10;;
17842;SDS011;69286;48.222;16.332;2024-03-25T13:38:37;2.83;;;2.30;;
17842;SDS011;69286;48.222;16.332;2024-03-25T13:41:03;5.27;;;3.07;;
17842;SDS011;69286;48.222;16.332;2024-03-25T13:43:31;4.50;;;2.70;;
17842;SDS011;69286;48.222;16.332;2024-03-25T13:45:57;5.47;;;3.27;;
17842;SDS011;69286;48.222;16.332;2024-03-25T13:48:23;3.13;;;2.00;;
17842;SDS011;69286;48.222;16.332;2024-03-25T13:50:52;3.03;;;2.20;;
17842;SDS011;69286;48.222;16.332;2024-03-25T13:53:19;4.07;;;2.07;;
17842;SDS011;69286;48.222;16.332;2024-03-25T13:55:45;4.50;;;2.13;;
17842;SDS011;69286;48.222;16.332;2024-03-25T13:58:11;2.87;;;2.10;;
17842;SDS011;69286;48.222;16.332;2024-03-25T14:00:39;4.30;;;2.17;;
17842;SDS011;69286;48.222;16.332;2024-03-25T14:03:05;2.27;;;2.07;;
17842;SDS011;69286;48.222;16.332;2024-03-25T14:05:31;2.23;;;2.07;;
17842;SDS011;69286;48.222;16.332;2024-03-25T14:07:58;3.93;;;1.87;;
17842;SDS011;69286;48.222;16.332;2024-03-25T14:10:24;3.17;;;2.03;;
17842;SDS011;69286;48.222;16.332;2024-03-25T14:12:50;3.53;;;2.03;;
17842;SDS011;69286;48.222;16.332;2024-03-25T14:15:16;2.80;;;1.77;;
17842;SDS011;69286;48.222;16.332;2024-03-25T14:17:43;3.23;;;2.17;;
17842;SDS011;69286;48.222;16.332;2024-03-25T14:20:09;2.50;;;1.80;;
17842;SDS011;69286;48.222;16.332;2024-03-25T14:22:36;2.30;;;1.70;;
17842;SDS011;69286;48.222;16.332;2024-03-25T14:25:02;2.60;;;1.80;;
17842;SDS011;69286;48.222;16.332;2024-03-25T14:27:29;2.00;;;1.80;;
17842;SDS011;69286;48.222;16.332;2024-03-25T14:29:55;3.47;;;1.90;;
17842;SDS011;69286;48.222;16.332;2024-03-25T14:32:22;2.17;;;1.97;;